Terminal Aerodrome Forecast
Issued by NWS Cleveland, OH

Home | Current Version | Previous Version | Graphics & Text | Print | Product List | Glossary On
Versions: 1 2 3 4 5 6 7 8 9 10 11 12 13 14 15 16 17 18 19 20 21 22 23 24 25 26 27 28 29 30
000
FTUS41 KCLE 150855 AAB
TAFCLE
TAF AMD
KCLE 150855Z 1509/1612 22008KT P6SM BKN005
      TEMPO 1509/1512 SCT005 OVC040
     FM151200 22010KT P6SM OVC010
     FM152000 23011KT 2SM -RA OVC007
     FM160200 26008KT 1 1/2SM -RA BR OVC003=

USA.gov is the U.S. government's official web portal to all federal, state and local government web resources and services.